Terminal Aerodrome Forecast
Issued by NWS

Home | Current Version | Previous Version | Text Only | Print | Product List | Glossary On
Versions: 1 2 3 4 5 6 7 8 9 10 11 12 13 14 15
000
FTUS44 KEPZ 230524
TAFTCS
TAF
KTCS 230524Z 2306/2406 33008KT P6SM SKC
     FM231800 03006KT P6SM FEW120
     FM232300 26010KT P6SM SCT120
     FM240400 05006KT P6SM FEW120=

USA.gov is the U.S. government's official web portal to all federal, state and local government web resources and services.